You are listening to:
KJFK Tower - New York, New York, United States

KJFK 181251Z 28012KT 10SM FEW036 SCT080 BKN120 12/06 A2986 RMK SLP111 T01170056

If stream doesn't start automatically press the play button
If stream stops then reload player then press play